Time;durP1;ratioP1;P1;durP2;ratioP2;P2;SDS_P1;SDS_P2;PMS_P1;PMS_P2;Temp;Humidity;BMP_temperature;BMP_pressure;BME280_temperature;BME280_humidity;BME280_pressure;Samples;Min_cycle;Max_cycle;Signal;HPM_P1;HPM_P2
2022/12/22 03:27:49;;;;;;;147.50;46.60;;;8.40;99.90;;;;;;4996104;28;20528;-84
2022/12/22 03:30:15;;;;;;;146.57;47.78;;;8.10;99.90;;;;;;5021531;28;20125;-81
2022/12/22 03:32:40;;;;;;;160.23;48.65;;;8.30;99.90;;;;;;5039667;28;20096;-82
2022/12/22 03:35:06;;;;;;;134.20;44.70;;;8.10;99.90;;;;;;5025304;28;20048;-79
2022/12/22 03:37:32;;;;;;;139.10;45.83;;;8.40;99.90;;;;;;5033936;28;20088;-82
2022/12/22 03:39:58;;;;;;;136.88;45.67;;;8.00;99.90;;;;;;5020433;28;20539;-85
2022/12/22 03:47:53;;;;;;;149.52;46.72;;;8.10;99.90;;;;;;5070476;28;20511;-85
2022/12/22 03:50:19;;;;;;;137.35;47.35;;;8.00;99.90;;;;;;5032708;28;20176;-81
2022/12/22 03:52:44;;;;;;;139.95;44.92;;;8.20;99.90;;;;;;5039569;28;20038;-82
2022/12/22 03:55:10;;;;;;;139.15;46.40;;;8.00;99.90;;;;;;5024156;28;20033;-81
2022/12/22 03:57:36;;;;;;;157.50;47.17;;;8.00;99.90;;;;;;5035253;28;20097;-82
2022/12/22 04:00:03;;;;;;;181.80;50.70;;;7.90;99.90;;;;;;5036391;28;20048;-83
2022/12/22 04:02:28;;;;;;;164.05;49.53;;;8.20;99.90;;;;;;5015279;28;20041;-85
2022/12/22 04:04:54;;;;;;;181.45;51.42;;;8.00;99.90;;;;;;5036285;28;20045;-86
2022/12/22 04:07:19;;;;;;;220.07;54.05;;;8.30;99.90;;;;;;5067196;28;20112;-81
2022/12/22 04:15:13;;;;;;;170.15;50.20;;;8.30;99.90;;;;;;5047086;28;20045;-83
2022/12/22 04:17:39;;;;;;;215.18;52.88;;;8.40;99.90;;;;;;5054558;28;20075;-83
2022/12/22 04:20:06;;;;;;;241.07;55.15;;;8.00;99.90;;;;;;5052964;28;20052;-81
2022/12/22 04:22:31;;;;;;;233.55;52.92;;;8.10;99.90;;;;;;5042471;28;20788;-83
2022/12/22 04:24:57;;;;;;;216.45;53.35;;;8.30;99.90;;;;;;5051764;28;20127;-82
2022/12/22 04:27:22;;;;;;;338.30;55.40;;;8.10;99.90;;;;;;5052117;28;20053;-85
2022/12/22 04:29:48;;;;;;;242.88;54.83;;;8.20;99.90;;;;;;5049333;28;20522;-86
2022/12/22 04:32:14;;;;;;;260.40;55.95;;;8.40;99.90;;;;;;5032569;28;20032;-81
2022/12/22 04:34:39;;;;;;;235.57;52.08;;;8.20;99.90;;;;;;5036213;28;20040;-81
2022/12/22 04:37:05;;;;;;;306.90;55.60;;;8.10;99.90;;;;;;5054885;28;20045;-81
2022/12/22 04:39:31;;;;;;;287.98;52.28;;;8.30;99.90;;;;;;5050284;28;20080;-84
2022/12/22 04:41:56;;;;;;;273.63;56.22;;;8.00;99.90;;;;;;5024177;28;20476;-83
2022/12/22 04:44:22;;;;;;;225.45;54.45;;;8.20;99.90;;;;;;5051022;28;20392;-85
2022/12/22 04:46:48;;;;;;;274.92;53.13;;;8.00;99.90;;;;;;5027142;28;20104;-83
2022/12/22 04:49:14;;;;;;;228.00;54.05;;;8.30;99.90;;;;;;5061076;28;20037;-80
2022/12/22 04:51:40;;;;;;;225.77;52.42;;;8.20;99.90;;;;;;5056505;28;20041;-80
2022/12/22 04:54:05;;;;;;;180.73;48.30;;;8.20;99.90;;;;;;5038990;28;20441;-83
2022/12/22 04:56:31;;;;;;;183.68;48.67;;;8.10;99.90;;;;;;5050635;28;20039;-82
2022/12/22 04:58:57;;;;;;;146.13;42.22;;;8.00;99.90;;;;;;5020689;28;20044;-85
2022/12/22 05:01:22;;;;;;;141.18;41.30;;;8.30;99.90;;;;;;5051880;28;20377;-84
2022/12/22 05:03:48;;;;;;;139.70;43.40;;;8.30;99.90;;;;;;5027569;28;20049;-88
2022/12/22 05:06:14;;;;;;;161.27;45.38;;;8.30;99.90;;;;;;5022776;28;20117;-78
2022/12/22 05:08:40;;;;;;;160.50;43.03;;;8.00;99.90;;;;;;5038711;28;20068;-83
2022/12/22 05:11:06;;;;;;;149.88;40.83;;;8.00;99.90;;;;;;5019869;28;20388;-82
2022/12/22 05:13:32;;;;;;;177.57;45.28;;;7.90;99.90;;;;;;5023034;28;20149;-87
2022/12/22 05:16:13;;;;;;;176.10;45.80;;;8.30;99.90;;;;;;5026033;28;20147;-83
2022/12/22 05:19:16;;;;;;;165.43;43.80;;;8.20;99.90;;;;;;5039128;28;20116;-81
2022/12/22 05:21:42;;;;;;;162.85;44.53;;;7.90;99.90;;;;;;5039003;28;20037;-83
2022/12/22 05:24:08;;;;;;;156.50;41.92;;;8.20;99.90;;;;;;5033082;28;20103;-80
2022/12/22 05:26:33;;;;;;;163.30;42.70;;;8.30;99.90;;;;;;5022230;28;20056;-84
2022/12/22 05:28:59;;;;;;;151.93;41.10;;;8.20;99.90;;;;;;5038072;28;20052;-83
2022/12/22 05:31:25;;;;;;;146.13;41.05;;;7.80;99.90;;;;;;5020244;28;20064;-83
2022/12/22 05:37:32;;;;;;;111.47;35.33;;;7.80;99.90;;;;;;5039300;28;20070;-82
2022/12/22 05:39:58;;;;;;;115.82;35.03;;;7.80;99.90;;;;;;5058856;28;20041;-80
2022/12/22 05:42:36;;;;;;;112.50;35.03;;;7.70;99.90;;;;;;5041814;28;20041;-81
2022/12/22 05:45:09;;;;;;;115.18;34.08;;;8.00;99.90;;;;;;5037113;28;20049;-80
2022/12/22 05:47:35;;;;;;;112.68;34.70;;;7.60;99.90;;;;;;5051213;28;20096;-85
2022/12/22 05:50:01;;;;;;;111.55;34.33;;;7.80;99.90;;;;;;5026844;28;20342;-84
2022/12/22 05:52:27;;;;;;;109.53;34.28;;;7.60;99.90;;;;;;5023687;28;20044;-80
2022/12/22 05:54:53;;;;;;;117.55;36.75;;;7.60;99.90;;;;;;5037713;28;20038;-82
2022/12/22 05:57:18;;;;;;;114.68;33.63;;;7.70;99.90;;;;;;5018108;28;20044;-83
2022/12/22 05:59:44;;;;;;;109.28;34.55;;;7.60;99.90;;;;;;5073187;28;20036;-83
2022/12/22 06:02:10;;;;;;;116.85;35.60;;;7.90;99.90;;;;;;5056958;28;20041;-84
2022/12/22 06:04:36;;;;;;;119.53;35.60;;;7.90;99.90;;;;;;5020558;28;20076;-79
2022/12/22 06:07:04;;;;;;;98.75;32.33;;;7.80;99.90;;;;;;5066575;28;20191;-84
2022/12/22 06:09:29;;;;;;;103.10;33.75;;;7.80;99.90;;;;;;5033366;28;20144;-83
2022/12/22 06:11:55;;;;;;;114.60;33.45;;;7.70;99.90;;;;;;5022333;28;20128;-86
2022/12/22 06:14:21;;;;;;;105.05;34.08;;;7.20;99.90;;;;;;5037643;28;20149;-81
2022/12/22 06:16:47;;;;;;;109.50;33.15;;;7.30;99.90;;;;;;5029820;28;20036;-85
2022/12/22 06:19:12;;;;;;;116.00;33.92;;;7.40;99.90;;;;;;5045747;28;20113;-84
2022/12/22 06:21:39;;;;;;;115.57;34.05;;;7.30;99.90;;;;;;5091556;28;20482;-80
2022/12/22 06:24:05;;;;;;;112.80;33.33;;;6.90;99.90;;;;;;5059782;28;20061;-78
2022/12/22 06:26:31;;;;;;;127.82;34.90;;;7.20;99.90;;;;;;5059006;28;20056;-83
2022/12/22 06:28:57;;;;;;;121.90;33.70;;;6.90;99.90;;;;;;5053353;28;20045;-81
2022/12/22 06:31:24;;;;;;;129.13;34.85;;;7.10;99.90;;;;;;5011527;28;20044;-84
2022/12/22 06:33:51;;;;;;;126.93;34.78;;;6.50;99.90;;;;;;5027359;28;20396;-84
2022/12/22 06:36:16;;;;;;;140.35;35.35;;;6.40;99.90;;;;;;5036637;28;20124;-82
2022/12/22 06:38:42;;;;;;;135.52;35.85;;;6.60;99.90;;;;;;5036817;28;20164;-83
2022/12/22 06:41:08;;;;;;;140.27;34.67;;;6.90;99.90;;;;;;5019223;28;20049;-78
2022/12/22 06:43:33;;;;;;;156.75;38.25;;;6.60;99.90;;;;;;5039811;28;20037;-85
2022/12/22 06:45:59;;;;;;;161.57;37.85;;;6.90;99.90;;;;;;5038092;28;20044;-79
2022/12/22 06:48:25;;;;;;;161.90;36.42;;;6.60;99.90;;;;;;5032004;28;20043;-82
2022/12/22 06:50:50;;;;;;;143.65;36.80;;;6.60;99.90;;;;;;5018421;28;20048;-82
2022/12/22 06:53:16;;;;;;;167.73;37.88;;;6.60;99.90;;;;;;5050786;28;20033;-80
2022/12/22 06:55:42;;;;;;;163.55;38.40;;;6.80;99.90;;;;;;5038282;28;20069;-84
2022/12/22 06:58:09;;;;;;;169.13;39.70;;;6.90;99.90;;;;;;5033326;28;20086;-83
2022/12/22 07:00:35;;;;;;;178.77;38.08;;;6.80;99.90;;;;;;5044025;28;20419;-84
2022/12/22 07:03:01;;;;;;;174.10;37.88;;;6.80;99.90;;;;;;5026258;28;20037;-84
2022/12/22 07:05:45;;;;;;;144.90;35.50;;;6.70;99.90;;;;;;5029325;28;20045;-84
2022/12/22 07:08:11;;;;;;;145.15;34.03;;;6.90;99.90;;;;;;5046528;28;20137;-82
2022/12/22 07:13:23;;;;;;;138.05;35.58;;;6.70;99.90;;;;;;5034343;28;20457;-83
2022/12/22 07:15:50;;;;;;;129.40;32.50;;;6.80;99.90;;;;;;5025532;28;20090;-81
2022/12/22 07:18:15;;;;;;;122.03;31.67;;;7.00;99.90;;;;;;5018133;28;20033;-81
2022/12/22 07:20:41;;;;;;;102.55;30.73;;;6.80;99.90;;;;;;5017746;28;20048;-82
2022/12/22 07:23:07;;;;;;;94.72;28.85;;;7.10;99.90;;;;;;5020101;28;20071;-81
2022/12/22 07:25:33;;;;;;;90.13;28.05;;;6.70;99.90;;;;;;5040323;28;20772;-82
2022/12/22 07:27:58;;;;;;;92.22;28.80;;;6.50;99.90;;;;;;5050063;28;20603;-83
2022/12/22 07:30:24;;;;;;;95.28;27.85;;;6.70;99.90;;;;;;5019447;28;20518;-79
2022/12/22 07:32:50;;;;;;;102.90;28.75;;;6.50;99.90;;;;;;5020612;28;20076;-83
2022/12/22 07:35:16;;;;;;;100.93;29.67;;;6.50;99.90;;;;;;5035663;28;20037;-81
2022/12/22 07:37:41;;;;;;;94.03;27.52;;;6.70;99.90;;;;;;5031628;28;20033;-84
2022/12/22 07:40:08;;;;;;;80.10;22.10;;;6.50;99.90;;;;;;5018999;28;20037;-84
2022/12/22 07:42:46;;;;;;;91.13;26.98;;;6.50;99.90;;;;;;5051786;28;20049;-82
2022/12/22 07:45:18;;;;;;;94.50;27.77;;;6.30;99.90;;;;;;5024900;28;20040;-82
2022/12/22 07:47:46;;;;;;;89.97;25.65;;;6.70;99.90;;;;;;5073658;28;20040;-85
2022/12/22 07:53:53;;;;;;;73.90;21.58;;;6.20;99.90;;;;;;5059724;28;20661;-80
2022/12/22 07:56:19;;;;;;;80.72;22.40;;;6.40;99.90;;;;;;5046697;28;20045;-81
2022/12/22 07:58:45;;;;;;;79.82;21.48;;;6.10;99.90;;;;;;5050840;28;20676;-85
2022/12/22 08:01:10;;;;;;;72.53;21.48;;;6.40;99.90;;;;;;5047755;28;20040;-85
2022/12/22 08:03:36;;;;;;;72.75;19.92;;;6.30;99.90;;;;;;5036482;28;20501;-82
2022/12/22 08:06:03;;;;;;;68.32;20.15;;;6.40;99.90;;;;;;5048809;28;20385;-82
2022/12/22 08:08:29;;;;;;;69.45;20.08;;;6.30;99.90;;;;;;5039295;28;20118;-82
2022/12/22 08:10:55;;;;;;;83.78;23.13;;;6.10;99.90;;;;;;5071753;28;20041;-82
2022/12/22 08:13:20;;;;;;;74.25;21.95;;;6.20;99.90;;;;;;5048081;28;20052;-86
2022/12/22 08:15:46;;;;;;;90.13;24.65;;;6.20;99.90;;;;;;5055549;28;20148;-84
2022/12/22 08:18:12;;;;;;;87.70;25.75;;;6.30;99.90;;;;;;5037663;28;20053;-86
2022/12/22 08:20:37;;;;;;;78.72;23.88;;;6.30;99.90;;;;;;5022627;28;20049;-86
2022/12/22 08:23:03;;;;;;;103.15;28.10;;;6.10;99.90;;;;;;5027444;28;20076;-86
2022/12/22 08:25:30;;;;;;;117.75;33.20;;;6.10;99.90;;;;;;5042677;28;20567;-84
2022/12/22 08:27:57;;;;;;;148.40;38.80;;;6.30;99.90;;;;;;5036304;28;20515;-80
2022/12/22 08:30:22;;;;;;;156.40;41.90;;;6.10;99.90;;;;;;5027089;28;20052;-79
2022/12/22 08:32:50;;;;;;;116.82;36.45;;;6.20;99.90;;;;;;5023456;28;20558;-80
2022/12/22 08:35:15;;;;;;;114.10;34.67;;;6.40;99.90;;;;;;5019617;28;20554;-79
2022/12/22 08:37:44;;;;;;;113.53;30.48;;;6.50;99.90;;;;;;5035090;28;20037;-83
2022/12/22 08:40:18;;;;;;;159.45;27.98;;;6.10;99.90;;;;;;5038321;28;20175;-81
2022/12/22 08:42:45;;;;;;;136.25;25.42;;;6.10;99.90;;;;;;5020564;28;20396;-77
2022/12/22 08:45:11;;;;;;;127.18;22.23;;;6.50;99.90;;;;;;5068194;28;20468;-79
2022/12/22 08:47:38;;;;;;;82.82;22.75;;;6.40;99.90;;;;;;5033621;28;20064;-83
2022/12/22 08:50:05;;;;;;;83.22;22.00;;;6.10;99.90;;;;;;5057826;28;20484;-79
2022/12/22 08:52:30;;;;;;;100.32;22.70;;;6.50;99.90;;;;;;5042150;28;20052;-80
2022/12/22 08:54:56;;;;;;;86.35;20.83;;;6.60;99.90;;;;;;5029983;28;20118;-82
2022/12/22 08:57:22;;;;;;;88.68;18.90;;;6.50;99.90;;;;;;5040062;28;20084;-83
2022/12/22 08:59:47;;;;;;;81.45;17.55;;;6.40;99.90;;;;;;5041273;28;20053;-80
2022/12/22 09:02:13;;;;;;;113.25;18.73;;;6.20;99.90;;;;;;5030794;28;20039;-80
2022/12/22 09:04:39;;;;;;;94.88;16.92;;;6.50;99.90;;;;;;5028408;28;20456;-80
2022/12/22 09:07:04;;;;;;;79.38;16.92;;;6.30;99.90;;;;;;5038022;28;20047;-80
2022/12/22 09:09:32;;;;;;;55.83;16.00;;;6.60;99.90;;;;;;5025635;28;20045;-80
2022/12/22 09:11:58;;;;;;;58.60;15.18;;;6.60;99.90;;;;;;5019259;28;20425;-83
2022/12/22 09:14:23;;;;;;;55.72;16.40;;;6.60;99.90;;;;;;5041014;28;20061;-79
2022/12/22 09:16:49;;;;;;;60.10;16.02;;;6.60;99.90;;;;;;5056022;28;20037;-80
2022/12/22 09:19:15;;;;;;;60.00;16.15;;;6.20;99.90;;;;;;5018522;28;20396;-79
2022/12/22 09:25:22;;;;;;;60.45;18.13;;;6.60;99.90;;;;;;5047218;28;20594;-81
2022/12/22 09:27:48;;;;;;;63.42;18.27;;;6.40;99.90;;;;;;5040334;28;20048;-81
2022/12/22 09:30:14;;;;;;;48.97;14.95;;;6.70;99.90;;;;;;5029549;28;20033;-81
2022/12/22 09:32:39;;;;;;;42.15;14.48;;;6.40;99.90;;;;;;5038181;28;20044;-85
2022/12/22 09:35:05;;;;;;;40.17;14.50;;;6.50;99.90;;;;;;5044582;28;20053;-84
2022/12/22 09:37:31;;;;;;;35.35;13.07;;;6.60;99.90;;;;;;5015560;28;20041;-84
2022/12/22 09:39:57;;;;;;;38.70;12.73;;;6.50;99.90;;;;;;5055140;28;20029;-81
2022/12/22 09:42:22;;;;;;;32.15;13.18;;;6.70;99.90;;;;;;5032322;28;20091;-83
2022/12/22 09:44:50;;;;;;;36.40;12.63;;;6.60;99.90;;;;;;5035705;28;20041;-81
2022/12/22 09:47:34;;;;;;;35.42;13.65;;;6.60;99.90;;;;;;5028243;28;20041;-81
2022/12/22 09:50:01;;;;;;;33.28;12.88;;;6.50;99.90;;;;;;5023447;28;20080;-81
2022/12/22 09:52:43;;;;;;;41.42;13.80;;;6.40;99.90;;;;;;5039285;28;20033;-84
2022/12/22 09:55:23;;;;;;;36.55;13.10;;;6.80;99.90;;;;;;5022780;28;20037;-79
2022/12/22 09:57:49;;;;;;;32.42;11.65;;;6.60;99.90;;;;;;5014778;28;20041;-83
2022/12/22 10:00:18;;;;;;;29.65;11.80;;;6.90;99.90;;;;;;5032088;28;20444;-81
2022/12/22 10:03:19;;;;;;;31.77;12.65;;;6.80;99.90;;;;;;5073863;28;20045;-81
2022/12/22 10:05:53;;;;;;;35.35;11.30;;;6.90;99.90;;;;;;5051818;28;20052;-79
2022/12/22 10:08:27;;;;;;;31.27;11.48;;;7.00;99.90;;;;;;5027338;28;20083;-79
2022/12/22 10:10:53;;;;;;;34.38;12.70;;;7.00;99.90;;;;;;5030244;28;20146;-80
2022/12/22 10:13:18;;;;;;;29.90;12.38;;;7.00;99.90;;;;;;5047123;28;20392;-81
2022/12/22 10:15:44;;;;;;;30.75;11.65;;;7.30;99.90;;;;;;5017334;28;20043;-83
2022/12/22 10:18:17;;;;;;;30.45;11.63;;;7.40;99.90;;;;;;5039270;28;20049;-83
2022/12/22 10:21:05;;;;;;;28.27;11.90;;;7.50;99.90;;;;;;5029879;28;20049;-84
2022/12/22 10:23:37;;;;;;;26.10;11.32;;;7.50;99.90;;;;;;5047496;28;20051;-80
2022/12/22 10:26:17;;;;;;;29.15;10.98;;;7.50;99.90;;;;;;5031940;28;20041;-83
2022/12/22 10:28:49;;;;;;;25.05;10.57;;;7.60;99.90;;;;;;5016647;28;20041;-83
2022/12/22 10:31:22;;;;;;;26.92;12.07;;;7.60;99.90;;;;;;5033522;28;20037;-83
2022/12/22 10:33:52;;;;;;;30.65;12.02;;;7.70;99.90;;;;;;5032181;28;20048;-81
2022/12/22 10:36:47;;;;;;;29.13;11.68;;;7.70;99.90;;;;;;5032393;28;20129;-84
2022/12/22 10:39:19;;;;;;;21.00;10.45;;;7.70;99.90;;;;;;5027294;28;20060;-79
2022/12/22 10:41:49;;;;;;;32.75;11.10;;;7.60;99.90;;;;;;5045661;28;20080;-82
2022/12/22 10:44:14;;;;;;;25.58;11.85;;;7.50;99.90;;;;;;5028299;28;20098;-83
2022/12/22 10:46:46;;;;;;;27.05;11.20;;;7.40;99.90;;;;;;5017328;28;20441;-81
2022/12/22 10:49:14;;;;;;;24.73;11.73;;;7.70;99.90;;;;;;5038619;28;20057;-78
2022/12/22 10:51:42;;;;;;;29.13;12.30;;;7.50;99.90;;;;;;5038695;28;20108;-82
2022/12/22 10:54:08;;;;;;;31.08;11.50;;;7.80;99.90;;;;;;5050750;28;20077;-79
2022/12/22 10:56:34;;;;;;;29.67;11.63;;;7.70;99.90;;;;;;5058400;28;20518;-83
2022/12/22 10:59:19;;;;;;;23.33;10.65;;;7.70;99.90;;;;;;5048811;28;20178;-79
2022/12/22 11:01:45;;;;;;;22.85;10.18;;;7.50;99.90;;;;;;5025487;28;20190;-79
2022/12/22 11:04:37;;;;;;;27.27;10.20;;;7.40;99.90;;;;;;5042103;28;20119;-82
2022/12/22 11:10:47;;;;;;;23.63;9.60;;;7.60;99.90;;;;;;5036400;28;20079;-85
2022/12/22 11:13:21;;;;;;;28.30;9.65;;;7.50;99.90;;;;;;5031838;28;20033;-83
2022/12/22 11:16:13;;;;;;;21.70;9.18;;;7.50;99.90;;;;;;5047160;28;20127;-82
2022/12/22 11:19:20;;;;;;;24.42;9.55;;;7.60;99.90;;;;;;5009041;28;20081;-81
2022/12/22 11:22:32;;;;;;;19.02;8.90;;;7.50;99.90;;;;;;4950562;28;20089;-80
2022/12/22 11:25:13;;;;;;;19.27;8.30;;;7.80;99.90;;;;;;4950368;28;20454;-80
2022/12/22 11:27:53;;;;;;;25.35;7.88;;;7.60;99.90;;;;;;4948481;28;20047;-80
2022/12/22 11:30:29;;;;;;;20.45;7.88;;;7.60;99.90;;;;;;4932670;28;20871;-84
2022/12/22 11:33:14;;;;;;;22.83;7.35;;;7.80;99.90;;;;;;4949292;28;20051;-80
2022/12/22 11:36:04;;;;;;;15.82;6.40;;;7.60;99.90;;;;;;4944335;28;20075;-78
2022/12/22 11:38:48;;;;;;;17.48;6.85;;;7.80;99.90;;;;;;4952819;28;20093;-80
2022/12/22 11:41:35;;;;;;;15.45;6.43;;;7.50;99.90;;;;;;4949518;28;20448;-78
2022/12/22 11:44:27;;;;;;;20.77;6.15;;;7.70;99.90;;;;;;4950524;28;20485;-80
2022/12/22 11:47:02;;;;;;;19.38;6.30;;;7.60;99.90;;;;;;4937258;28;20166;-81
2022/12/22 11:50:04;;;;;;;19.13;5.53;;;7.60;99.90;;;;;;4935735;28;20047;-80
2022/12/22 11:52:43;;;;;;;19.67;6.70;;;7.80;99.90;;;;;;4942677;28;20085;-82
2022/12/22 11:55:43;;;;;;;21.85;6.78;;;7.60;99.90;;;;;;4967603;28;20181;-79
2022/12/22 11:58:31;;;;;;;16.92;6.00;;;7.60;99.90;;;;;;4939225;28;20049;-82
2022/12/22 12:01:21;;;;;;;16.38;5.63;;;7.70;99.90;;;;;;5003473;28;20991;-83
2022/12/22 12:04:03;;;;;;;20.95;6.00;;;8.00;99.90;;;;;;4972497;28;20041;-83
2022/12/22 12:06:35;;;;;;;21.67;6.03;;;7.90;99.90;;;;;;4989610;28;20490;-80
2022/12/22 12:09:30;;;;;;;22.77;6.05;;;7.90;99.90;;;;;;5004128;28;20096;-81
2022/12/22 12:12:13;;;;;;;25.65;5.53;;;7.90;99.90;;;;;;4992826;28;20366;-83
2022/12/22 12:15:07;;;;;;;20.08;5.03;;;7.90;99.90;;;;;;4984299;28;20058;-80
2022/12/22 12:18:11;;;;;;;20.98;4.82;;;8.10;99.90;;;;;;4983716;28;20037;-80
2022/12/22 12:24:48;;;;;;;18.60;4.70;;;8.10;99.90;;;;;;4921886;29;20047;-81
2022/12/22 12:27:28;;;;;;;21.60;4.95;;;8.10;99.90;;;;;;4942734;29;20071;-82
2022/12/22 12:30:10;;;;;;;16.30;3.80;;;8.30;99.90;;;;;;4923606;29;20207;-82
2022/12/22 12:32:57;;;;;;;19.92;4.70;;;8.20;99.90;;;;;;4920275;28;20039;-83
2022/12/22 12:35:31;;;;;;;16.00;4.30;;;8.40;99.90;;;;;;4964188;28;20039;-83
2022/12/22 12:38:21;;;;;;;20.73;4.20;;;8.20;99.90;;;;;;4958448;28;20086;-80
2022/12/22 12:41:06;;;;;;;18.33;4.25;;;8.40;99.90;;;;;;4921848;29;20090;-81
2022/12/22 12:43:32;;;;;;;18.50;4.03;;;8.50;99.90;;;;;;4938389;29;20622;-83
2022/12/22 12:45:58;;;;;;;21.20;4.28;;;8.40;99.90;;;;;;4975753;28;20065;-83
2022/12/22 12:48:24;;;;;;;23.15;4.28;;;8.40;99.90;;;;;;4944934;28;20452;-80
2022/12/22 12:50:50;;;;;;;21.02;3.90;;;8.20;99.90;;;;;;4951595;28;20082;-78
2022/12/22 12:53:18;;;;;;;22.77;4.35;;;8.30;99.90;;;;;;4959878;28;20043;-79
2022/12/22 12:55:46;;;;;;;18.50;3.67;;;8.30;99.90;;;;;;4940147;28;20049;-82
2022/12/22 12:58:36;;;;;;;18.63;4.03;;;8.30;99.90;;;;;;5034288;28;20042;-79
2022/12/22 13:01:04;;;;;;;20.13;4.78;;;8.10;99.90;;;;;;5048979;28;20046;-83
2022/12/22 13:03:37;;;;;;;19.33;5.43;;;8.10;99.90;;;;;;5064632;28;20049;-80
2022/12/22 13:06:06;;;;;;;22.67;4.95;;;8.30;99.90;;;;;;5051380;28;20126;-83
2022/12/22 13:08:51;;;;;;;18.70;4.15;;;8.20;99.90;;;;;;5038894;28;20118;-78
2022/12/22 13:11:19;;;;;;;14.85;3.65;;;8.20;99.90;;;;;;5019999;28;20499;-80
2022/12/22 13:13:46;;;;;;;20.42;4.13;;;8.20;99.90;;;;;;5034241;28;20419;-83
2022/12/22 13:16:15;;;;;;;15.52;4.05;;;8.20;99.90;;;;;;5023125;28;20200;-82
2022/12/22 13:18:45;;;;;;;19.40;4.90;;;8.30;99.90;;;;;;5022294;28;20045;-81
2022/12/22 13:21:15;;;;;;;25.95;4.70;;;8.40;99.90;;;;;;5035361;28;20090;-81
2022/12/22 13:23:44;;;;;;;17.80;3.60;;;8.30;99.90;;;;;;5024483;28;20130;-82
2022/12/22 13:26:17;;;;;;;22.08;3.67;;;8.30;99.90;;;;;;5039418;28;20479;-79
2022/12/22 13:28:50;;;;;;;16.42;3.50;;;8.40;99.90;;;;;;5031904;28;20134;-82
2022/12/22 13:31:27;;;;;;;24.33;3.83;;;8.50;99.90;;;;;;5031869;28;20069;-82
2022/12/22 13:34:15;;;;;;;16.35;3.47;;;8.40;99.90;;;;;;5036091;28;20064;-82
2022/12/22 13:36:42;;;;;;;18.60;3.60;;;8.60;99.90;;;;;;5042303;28;20112;-82
2022/12/22 13:39:14;;;;;;;20.45;3.55;;;8.60;99.90;;;;;;5046700;28;20072;-80
2022/12/22 13:41:46;;;;;;;22.75;4.10;;;8.50;99.90;;;;;;5020174;28;20095;-81
2022/12/22 13:44:19;;;;;;;17.52;3.78;;;8.40;99.90;;;;;;5018537;28;20069;-80
2022/12/22 13:46:45;;;;;;;18.13;3.92;;;8.30;99.90;;;;;;5035476;28;20079;-83
2022/12/22 13:49:18;;;;;;;21.60;4.35;;;8.30;99.90;;;;;;5039433;28;20116;-82
2022/12/22 13:52:02;;;;;;;18.73;3.65;;;8.50;99.90;;;;;;5027910;28;20034;-81
2022/12/22 13:54:32;;;;;;;18.80;4.03;;;8.40;99.90;;;;;;5029789;28;21073;-82
2022/12/22 13:57:00;;;;;;;21.38;4.15;;;8.40;99.90;;;;;;5024544;28;20045;-81
2022/12/22 13:59:29;;;;;;;24.90;4.45;;;8.60;99.90;;;;;;5022271;28;20048;-80
2022/12/22 14:02:10;;;;;;;22.70;4.20;;;8.40;99.90;;;;;;5039432;28;20068;-80
2022/12/22 14:04:37;;;;;;;24.00;4.22;;;8.50;99.90;;;;;;5048343;28;20041;-82
2022/12/22 14:07:29;;;;;;;18.25;4.35;;;8.40;99.90;;;;;;5031434;28;20132;-79
2022/12/22 14:09:56;;;;;;;16.95;4.30;;;8.60;99.90;;;;;;5024839;28;20156;-82
2022/12/22 14:12:30;;;;;;;18.05;4.10;;;8.60;99.90;;;;;;5045627;28;20116;-81
2022/12/22 14:14:58;;;;;;;18.88;4.57;;;8.40;99.90;;;;;;5047134;28;20045;-81
2022/12/22 14:17:36;;;;;;;17.92;4.22;;;8.50;99.90;;;;;;5038842;28;20041;-80
2022/12/22 14:20:21;;;;;;;17.35;4.20;;;8.50;99.90;;;;;;5042167;28;20037;-81
2022/12/22 14:23:11;;;;;;;20.10;4.10;;;8.40;99.90;;;;;;5051547;28;20045;-78
2022/12/22 14:25:40;;;;;;;15.35;3.95;;;8.40;99.90;;;;;;5019657;28;20064;-80
2022/12/22 14:28:20;;;;;;;20.17;4.72;;;8.60;99.90;;;;;;5039565;28;20045;-78
2022/12/22 14:30:50;;;;;;;21.88;5.00;;;8.40;99.90;;;;;;5044153;28;20160;-81
2022/12/22 14:33:28;;;;;;;17.05;4.40;;;8.60;99.90;;;;;;5043481;28;20033;-76
2022/12/22 14:36:14;;;;;;;22.35;4.05;;;8.70;99.90;;;;;;5042221;28;20171;-78
2022/12/22 14:38:46;;;;;;;14.65;4.72;;;8.60;99.90;;;;;;5041906;28;21682;-79
2022/12/22 14:41:52;;;;;;;16.08;5.20;;;8.50;99.90;;;;;;5032122;28;20041;-82
2022/12/22 14:44:25;;;;;;;;;;;8.50;99.90;;;;;;5008324;28;20039;-82
2022/12/22 14:47:10;;;;;;;14.90;6.43;;;8.40;99.90;;;;;;5014725;28;20374;-80
2022/12/22 14:49:48;;;;;;;18.00;4.68;;;8.30;99.90;;;;;;5019745;28;20084;-82
2022/12/22 14:52:20;;;;;;;16.45;4.78;;;8.40;99.90;;;;;;5025689;28;20045;-82
2022/12/22 14:54:49;;;;;;;20.48;6.60;;;8.30;99.90;;;;;;5046151;28;20107;-80
2022/12/22 14:57:29;;;;;;;18.25;4.95;;;8.40;99.90;;;;;;5023573;28;20511;-80
2022/12/22 15:00:01;;;;;;;16.52;5.65;;;8.30;99.90;;;;;;5045851;28;20123;-82
2022/12/22 15:02:49;;;;;;;19.65;6.32;;;8.20;99.90;;;;;;5032744;28;20056;-81
2022/12/22 15:05:27;;;;;;;16.02;7.97;;;8.40;99.90;;;;;;5015493;28;20048;-80
2022/12/22 15:07:55;;;;;;;19.02;6.05;;;8.30;99.90;;;;;;5004172;28;20488;-81
2022/12/22 15:10:23;;;;;;;12.63;3.03;;;8.30;99.90;;;;;;5019436;28;20536;-79
2022/12/22 15:12:51;;;;;;;18.88;4.20;;;8.30;99.90;;;;;;5007485;28;20443;-80
2022/12/22 15:15:21;;;;;;;12.60;2.88;;;8.20;99.90;;;;;;5016735;28;20045;-80
2022/12/22 15:17:50;;;;;;;19.15;4.63;;;7.90;99.90;;;;;;5042646;28;20041;-81
2022/12/22 15:20:19;;;;;;;14.88;4.55;;;8.00;99.90;;;;;;5030074;28;20041;-81
2022/12/22 15:26:26;;;;;;;18.13;3.58;;;8.10;99.90;;;;;;5054842;28;20537;-79
2022/12/22 15:28:52;;;;;;;14.73;2.67;;;8.10;99.90;;;;;;5042062;28;20041;-80
2022/12/22 15:31:18;;;;;;;14.27;4.00;;;8.10;99.90;;;;;;5035625;28;20380;-81
2022/12/22 15:33:44;;;;;;;14.82;4.50;;;8.10;99.90;;;;;;5043186;28;20152;-80
2022/12/22 15:36:11;;;;;;;18.95;3.25;;;8.10;99.90;;;;;;5042618;28;20040;-82
2022/12/22 15:38:38;;;;;;;17.35;3.40;;;8.10;99.90;;;;;;5019296;28;20033;-79
2022/12/22 15:41:04;;;;;;;15.45;3.47;;;7.80;99.90;;;;;;5036584;28;20120;-79
2022/12/22 15:43:30;;;;;;;19.23;3.70;;;8.00;99.90;;;;;;5060614;28;20651;-80
2022/12/22 15:45:56;;;;;;;16.23;4.03;;;8.00;99.90;;;;;;5018036;28;20139;-80
2022/12/22 15:48:32;;;;;;;16.35;4.13;;;7.90;99.90;;;;;;5030556;28;20049;-78
2022/12/22 15:51:01;;;;;;;13.70;3.70;;;7.90;99.90;;;;;;5030098;28;20543;-80
2022/12/22 15:53:26;;;;;;;16.38;4.20;;;7.70;99.90;;;;;;5067152;28;20485;-79
2022/12/22 15:55:54;;;;;;;17.20;5.03;;;7.80;99.90;;;;;;5014478;28;20047;-80
2022/12/22 15:58:27;;;;;;;20.15;4.88;;;7.90;99.90;;;;;;5064311;28;20057;-79
2022/12/22 16:00:53;;;;;;;18.88;5.53;;;7.80;99.90;;;;;;5015715;28;20131;-82
2022/12/22 16:03:19;;;;;;;22.52;5.97;;;7.60;99.90;;;;;;5035953;28;20087;-78
2022/12/22 16:05:45;;;;;;;17.48;5.40;;;7.60;99.90;;;;;;5039093;28;20116;-79
2022/12/22 16:08:19;;;;;;;13.15;5.30;;;7.60;99.90;;;;;;5064877;28;20150;-79
2022/12/22 16:10:45;;;;;;;;;;;7.90;99.90;;;;;;5025639;28;20048;-78
2022/12/22 16:13:13;;;;;;;17.30;8.32;;;7.80;99.90;;;;;;5039749;28;19917;-81
2022/12/22 16:15:39;;;;;;;22.00;9.82;;;7.70;99.90;;;;;;5038876;28;20060;-82
2022/12/22 16:18:05;;;;;;;22.45;9.13;;;7.60;99.90;;;;;;5043262;28;20597;-79
2022/12/22 16:20:36;;;;;;;16.70;9.23;;;7.50;99.90;;;;;;5040684;28;20109;-79
2022/12/22 16:23:03;;;;;;;17.48;6.97;;;7.70;99.90;;;;;;5079562;28;20048;-80
2022/12/22 16:25:37;;;;;;;22.95;7.47;;;7.50;99.90;;;;;;5040804;28;20057;-81
2022/12/22 16:28:04;;;;;;;20.33;7.50;;;7.80;99.90;;;;;;5057150;28;20528;-80
2022/12/22 16:30:32;;;;;;;18.73;7.43;;;7.70;99.90;;;;;;5010106;28;20045;-79
2022/12/22 16:32:58;;;;;;;14.45;7.47;;;7.60;99.90;;;;;;5050530;28;20052;-80
2022/12/22 16:35:29;;;;;;;18.75;6.25;;;7.70;99.90;;;;;;5038188;28;20119;-80
2022/12/22 16:37:56;;;;;;;18.65;5.43;;;7.50;99.90;;;;;;5051070;28;20037;-79
2022/12/22 16:40:22;;;;;;;15.55;5.55;;;7.50;99.90;;;;;;5049417;28;20061;-79
2022/12/22 16:43:25;;;;;;;13.27;5.72;;;7.30;99.90;;;;;;5025439;28;20400;-80
2022/12/22 16:45:51;;;;;;;13.45;6.13;;;7.60;99.90;;;;;;4970872;28;20058;-82
2022/12/22 16:48:33;;;;;;;18.30;6.70;;;7.40;99.90;;;;;;4973518;28;20057;-82
2022/12/22 16:50:58;;;;;;;17.60;6.55;;;7.60;99.90;;;;;;5008332;28;20535;-81
2022/12/22 16:53:24;;;;;;;15.57;8.30;;;7.40;99.90;;;;;;5006992;28;20168;-80
2022/12/22 16:55:50;;;;;;;19.48;8.57;;;7.50;99.90;;;;;;4991215;28;20501;-79
2022/12/22 16:58:16;;;;;;;15.70;9.40;;;7.50;99.90;;;;;;5002862;28;20034;-80
2022/12/22 17:00:43;;;;;;;19.35;10.50;;;7.50;99.90;;;;;;4967952;28;20448;-81